Time;durP1;ratioP1;P1;durP2;ratioP2;P2;SDS_P1;SDS_P2;PMS_P1;PMS_P2;Temp;Humidity;BMP_temperature;BMP_pressure;BME280_temperature;BME280_humidity;BME280_pressure;Samples;Min_cycle;Max_cycle;Signal;HPM_P1;HPM_P2
2021/10/26 00:00:18;;;;;;;24.77;13.25;;;;;;;;;;5020180;28;20033;-85
2021/10/26 00:02:44;;;;;;;19.25;12.80;;;;;;;;;;5037429;28;20049;-84
2021/10/26 00:05:11;;;;;;;20.92;13.43;;;;;;;;;;5037795;28;20026;-85
2021/10/26 00:07:37;;;;;;;26.45;13.82;;;;;;;;;;5037728;28;20075;-85
2021/10/26 00:10:05;;;;;;;28.48;16.25;;;;;;;;;;5037439;28;20025;-85
2021/10/26 00:12:31;;;;;;;30.20;16.52;;;;;;;;;;5019971;28;20045;-85
2021/10/26 00:14:58;;;;;;;30.27;16.52;;;;;;;;;;5037456;28;20049;-86
2021/10/26 00:17:24;;;;;;;29.10;15.52;;;;;;;;;;5037219;28;20121;-85
2021/10/26 00:19:50;;;;;;;31.73;16.38;;;;;;;;;;5037341;28;20036;-85
2021/10/26 00:25:20;;;;;;;28.23;15.85;;;;;;;;;;5037311;28;20083;-85
2021/10/26 00:27:46;;;;;;;23.23;14.77;;;;;;;;;;5037261;28;20045;-84
2021/10/26 00:30:12;;;;;;;20.80;13.18;;;;;;;;;;5019477;28;20037;-84
2021/10/26 00:32:38;;;;;;;19.30;11.93;;;;;;;;;;5019486;28;20029;-85
2021/10/26 00:35:05;;;;;;;18.08;11.93;;;;;;;;;;5019849;28;20053;-85
2021/10/26 00:40:58;;;;;;;17.27;11.05;;;;;;;;;;5034245;28;20055;-84
2021/10/26 00:43:25;;;;;;;21.38;11.88;;;;;;;;;;4999864;28;20034;-85
2021/10/26 00:45:51;;;;;;;22.58;11.60;;;;;;;;;;5017526;28;20203;-84
2021/10/26 00:48:17;;;;;;;19.23;11.85;;;;;;;;;;5017516;28;20076;-84
2021/10/26 00:50:43;;;;;;;22.88;11.55;;;;;;;;;;4999544;28;20030;-84
2021/10/26 00:53:09;;;;;;;20.27;12.57;;;;;;;;;;5000016;28;20416;-84
2021/10/26 00:55:35;;;;;;;25.25;13.52;;;;;;;;;;5017202;28;20085;-85
2021/10/26 00:58:02;;;;;;;29.58;14.13;;;;;;;;;;5017528;28;20036;-84
2021/10/26 01:00:28;;;;;;;24.45;13.90;;;;;;;;;;5017353;28;20042;-84
2021/10/26 01:02:54;;;;;;;27.67;14.77;;;;;;;;;;4999259;28;20086;-84
2021/10/26 01:05:20;;;;;;;24.48;14.68;;;;;;;;;;5017114;28;20039;-84
2021/10/26 01:07:46;;;;;;;23.77;14.57;;;;;;;;;;4999166;28;20348;-83
2021/10/26 01:10:12;;;;;;;24.80;15.05;;;;;;;;;;4999603;28;20029;-84
2021/10/26 01:12:38;;;;;;;24.55;15.02;;;;;;;;;;4999370;28;20034;-84
2021/10/26 01:15:06;;;;;;;24.77;14.77;;;;;;;;;;5017407;28;20037;-84
2021/10/26 01:17:32;;;;;;;28.02;16.50;;;;;;;;;;4999746;28;20022;-83
2021/10/26 01:19:58;;;;;;;22.83;14.35;;;;;;;;;;5016634;28;20113;-84
2021/10/26 01:23:01;;;;;;;24.13;15.57;;;;;;;;;;5016826;28;20057;-84
2021/10/26 01:25:28;;;;;;;28.52;16.48;;;;;;;;;;5016843;28;20026;-84
2021/10/26 01:27:54;;;;;;;31.45;16.48;;;;;;;;;;5016623;28;20105;-85
2021/10/26 01:30:27;;;;;;;23.42;15.73;;;;;;;;;;5018966;28;20026;-85
2021/10/26 01:32:54;;;;;;;25.60;14.93;;;;;;;;;;5020394;28;20029;-84
2021/10/26 01:35:20;;;;;;;22.65;14.93;;;;;;;;;;5003004;28;20041;-84
2021/10/26 01:40:50;;;;;;;26.17;14.43;;;;;;;;;;5020294;28;20028;-85
2021/10/26 01:43:16;;;;;;;25.23;15.35;;;;;;;;;;5021498;28;20049;-84
2021/10/26 01:45:42;;;;;;;27.25;15.88;;;;;;;;;;5040300;28;20033;-86
2021/10/26 01:48:08;;;;;;;28.13;15.85;;;;;;;;;;5040046;28;20076;-85
2021/10/26 01:50:35;;;;;;;27.65;16.63;;;;;;;;;;5039965;28;20056;-86
2021/10/26 01:53:20;;;;;;;31.38;17.95;;;;;;;;;;5040120;28;20026;-85
2021/10/26 01:55:46;;;;;;;32.47;18.08;;;;;;;;;;5022279;28;20025;-84
2021/10/26 01:58:13;;;;;;;29.85;18.23;;;;;;;;;;5039332;28;20040;-84
2021/10/26 02:00:40;;;;;;;33.13;18.52;;;;;;;;;;5039609;28;20127;-84
2021/10/26 02:03:06;;;;;;;25.98;16.80;;;;;;;;;;5039839;28;20101;-85
2021/10/26 02:05:32;;;;;;;27.95;17.60;;;;;;;;;;5039927;28;20026;-85
2021/10/26 02:08:35;;;;;;;31.77;18.67;;;;;;;;;;5021968;28;20404;-85
2021/10/26 02:11:01;;;;;;;31.02;19.02;;;;;;;;;;5039336;28;20034;-84
2021/10/26 02:13:27;;;;;;;33.17;18.15;;;;;;;;;;5039598;28;20100;-84
2021/10/26 02:15:54;;;;;;;32.53;20.17;;;;;;;;;;5021287;28;20041;-84
2021/10/26 02:18:20;;;;;;;32.72;18.83;;;;;;;;;;5039480;28;20377;-86
2021/10/26 02:20:46;;;;;;;30.50;18.70;;;;;;;;;;5039340;28;20022;-85
2021/10/26 02:26:16;;;;;;;28.35;16.70;;;;;;;;;;5039493;28;20419;-85
2021/10/26 02:28:42;;;;;;;26.90;15.73;;;;;;;;;;5021378;28;20467;-86
2021/10/26 02:31:08;;;;;;;29.23;16.75;;;;;;;;;;5039289;28;20694;-86
2021/10/26 02:33:34;;;;;;;27.80;16.50;;;;;;;;;;5039357;28;20026;-85
2021/10/26 02:36:01;;;;;;;27.30;15.85;;;;;;;;;;5039371;28;20041;-85
2021/10/26 02:38:27;;;;;;;27.13;15.55;;;;;;;;;;5039411;28;20048;-86
2021/10/26 02:40:53;;;;;;;27.00;14.77;;;;;;;;;;5038565;28;20396;-85
2021/10/26 02:43:19;;;;;;;23.70;13.63;;;;;;;;;;5038767;28;20164;-84
2021/10/26 02:45:45;;;;;;;19.98;10.40;;;;;;;;;;5021363;28;20026;-85
2021/10/26 02:48:11;;;;;;;30.48;15.70;;;;;;;;;;5038819;28;20030;-85
2021/10/26 02:50:37;;;;;;;32.78;17.00;;;;;;;;;;5038736;28;20442;-85
2021/10/26 02:53:06;;;;;;;43.53;22.27;;;;;;;;;;5038593;28;20030;-85
2021/10/26 02:55:32;;;;;;;31.38;18.35;;;;;;;;;;5038660;28;20040;-85
2021/10/26 02:57:58;;;;;;;23.83;12.30;;;;;;;;;;5038530;28;20029;-84
2021/10/26 03:00:24;;;;;;;20.38;10.45;;;;;;;;;;5038433;28;20116;-85
2021/10/26 03:02:50;;;;;;;21.23;10.07;;;;;;;;;;5038602;28;20108;-85
2021/10/26 03:05:16;;;;;;;13.57;9.15;;;;;;;;;;5021061;28;20021;-84
2021/10/26 03:07:43;;;;;;;13.00;7.60;;;;;;;;;;5038691;28;20316;-85
2021/10/26 03:10:10;;;;;;;15.05;8.40;;;;;;;;;;5038556;28;20041;-84
2021/10/26 03:12:36;;;;;;;14.77;8.98;;;;;;;;;;5038495;28;20028;-84
2021/10/26 03:15:03;;;;;;;14.75;8.65;;;;;;;;;;5038157;28;20435;-84
2021/10/26 03:17:29;;;;;;;16.90;9.90;;;;;;;;;;5038590;28;20026;-84
2021/10/26 03:19:55;;;;;;;28.48;19.83;;;;;;;;;;5037126;28;20022;-84
2021/10/26 03:22:22;;;;;;;23.25;16.25;;;;;;;;;;5038182;28;20025;-84
2021/10/26 03:24:48;;;;;;;18.83;13.15;;;;;;;;;;5037750;28;20017;-84
2021/10/26 03:27:14;;;;;;;20.00;12.30;;;;;;;;;;5020334;28;20363;-84
2021/10/26 03:29:40;;;;;;;18.60;11.00;;;;;;;;;;5037888;28;20057;-85
2021/10/26 03:32:06;;;;;;;20.98;10.27;;;;;;;;;;5037900;28;20056;-86
2021/10/26 03:34:32;;;;;;;16.15;8.88;;;;;;;;;;5038077;28;20022;-85
2021/10/26 03:40:03;;;;;;;20.80;9.88;;;;;;;;;;5038229;28;20033;-85
2021/10/26 03:42:30;;;;;;;17.30;9.55;;;;;;;;;;5037471;28;20042;-84
2021/10/26 03:44:56;;;;;;;17.85;9.93;;;;;;;;;;5037464;28;20420;-84
2021/10/26 03:47:22;;;;;;;19.40;9.52;;;;;;;;;;5036854;28;20033;-86
2021/10/26 03:49:48;;;;;;;15.98;9.00;;;;;;;;;;5038054;28;20018;-86
2021/10/26 03:52:14;;;;;;;15.38;9.32;;;;;;;;;;5036856;28;20032;-87
2021/10/26 03:54:41;;;;;;;16.95;8.93;;;;;;;;;;5037939;28;20319;-86
2021/10/26 03:57:12;;;;;;;17.00;9.60;;;;;;;;;;5037566;28;20060;-86
2021/10/26 03:59:39;;;;;;;14.73;9.27;;;;;;;;;;5038027;28;20045;-85
2021/10/26 04:02:17;;;;;;;15.00;8.82;;;;;;;;;;5036383;28;20060;-85
2021/10/26 04:04:43;;;;;;;13.50;8.27;;;;;;;;;;5037414;28;20403;-85
2021/10/26 04:07:10;;;;;;;18.60;8.52;;;;;;;;;;5037411;28;20018;-86
2021/10/26 04:09:49;;;;;;;19.20;8.80;;;;;;;;;;5036702;28;20419;-85
2021/10/26 04:14:47;;;;;;;16.15;8.65;;;;;;;;;;5037845;28;20034;-86
2021/10/26 04:17:14;;;;;;;13.60;9.13;;;;;;;;;;5036098;28;20037;-85
2021/10/26 04:19:40;;;;;;;15.00;8.85;;;;;;;;;;5037906;28;20029;-86
2021/10/26 04:22:07;;;;;;;15.77;8.95;;;;;;;;;;5037315;28;20396;-85
2021/10/26 04:24:33;;;;;;;14.30;10.00;;;;;;;;;;5037584;28;20032;-85
2021/10/26 04:26:59;;;;;;;18.83;10.00;;;;;;;;;;5037112;28;20022;-85
2021/10/26 04:29:25;;;;;;;16.98;9.90;;;;;;;;;;5019865;28;20030;-85
2021/10/26 04:34:55;;;;;;;16.08;9.15;;;;;;;;;;5034906;28;20109;-83
2021/10/26 04:37:21;;;;;;;13.85;9.48;;;;;;;;;;5036944;28;20034;-84
2021/10/26 04:39:47;;;;;;;16.58;9.52;;;;;;;;;;5037047;28;20439;-83
2021/10/26 04:42:13;;;;;;;18.35;9.60;;;;;;;;;;5036692;28;20063;-84
2021/10/26 04:44:39;;;;;;;16.83;11.05;;;;;;;;;;5036831;28;20049;-84
2021/10/26 04:47:06;;;;;;;25.13;13.35;;;;;;;;;;5037108;28;20064;-84
2021/10/26 04:49:32;;;;;;;20.55;13.43;;;;;;;;;;5037013;28;20030;-85
2021/10/26 04:51:58;;;;;;;16.30;10.80;;;;;;;;;;5037246;28;20024;-85
2021/10/26 04:54:25;;;;;;;20.80;12.30;;;;;;;;;;5037204;28;20041;-85
2021/10/26 04:56:51;;;;;;;20.27;12.50;;;;;;;;;;5036857;28;20088;-85
2021/10/26 04:59:18;;;;;;;24.15;13.90;;;;;;;;;;5019462;28;20033;-80
2021/10/26 05:01:44;;;;;;;26.50;17.73;;;;;;;;;;5029143;28;20029;-81
2021/10/26 05:04:10;;;;;;;27.20;16.33;;;;;;;;;;5026812;28;20022;-81
2021/10/26 05:06:36;;;;;;;27.08;15.85;;;;;;;;;;5039663;28;20103;-81
2021/10/26 05:09:03;;;;;;;28.30;16.20;;;;;;;;;;5040624;28;20032;-81
2021/10/26 05:11:29;;;;;;;27.88;16.52;;;;;;;;;;5022253;28;20117;-83
2021/10/26 05:13:56;;;;;;;29.50;15.80;;;;;;;;;;5040424;28;20017;-81
2021/10/26 05:16:22;;;;;;;25.70;16.00;;;;;;;;;;5040087;28;20026;-81
2021/10/26 05:18:51;;;;;;;27.50;16.10;;;;;;;;;;5040156;28;20057;-81
2021/10/26 05:21:21;;;;;;;30.98;17.33;;;;;;;;;;5040032;28;20025;-82
2021/10/26 05:23:49;;;;;;;26.73;17.30;;;;;;;;;;5039967;28;20052;-82
2021/10/26 05:26:16;;;;;;;33.00;16.65;;;;;;;;;;5039969;28;20022;-82
2021/10/26 05:28:42;;;;;;;27.05;16.58;;;;;;;;;;5039876;28;20025;-82
2021/10/26 05:31:08;;;;;;;25.73;16.08;;;;;;;;;;5039785;28;20029;-82
2021/10/26 05:33:36;;;;;;;33.78;16.70;;;;;;;;;;5039890;28;20029;-82
2021/10/26 05:36:02;;;;;;;33.28;18.30;;;;;;;;;;5022302;28;20025;-82
2021/10/26 05:38:28;;;;;;;27.55;15.73;;;;;;;;;;5039931;28;20033;-82
2021/10/26 05:40:54;;;;;;;28.25;15.75;;;;;;;;;;5039417;28;20022;-82
2021/10/26 05:43:20;;;;;;;31.88;15.48;;;;;;;;;;5021285;28;20041;-82
2021/10/26 05:45:46;;;;;;;25.65;15.43;;;;;;;;;;5022167;28;20022;-82
2021/10/26 05:48:13;;;;;;;23.25;14.70;;;;;;;;;;5021838;28;20122;-82
2021/10/26 05:50:39;;;;;;;28.17;14.90;;;;;;;;;;5039248;28;20026;-82
2021/10/26 05:53:05;;;;;;;21.40;13.48;;;;;;;;;;5021384;28;20033;-82
2021/10/26 05:55:32;;;;;;;29.90;14.13;;;;;;;;;;5021943;28;20124;-82
2021/10/26 05:57:58;;;;;;;23.42;13.32;;;;;;;;;;5039506;28;20396;-82
2021/10/26 06:00:25;;;;;;;23.08;13.23;;;;;;;;;;5039416;28;20137;-82
2021/10/26 06:02:52;;;;;;;25.30;14.05;;;;;;;;;;5039171;28;20029;-82
2021/10/26 06:05:18;;;;;;;21.40;12.88;;;;;;;;;;5020956;28;20032;-82
2021/10/26 06:07:44;;;;;;;22.75;12.15;;;;;;;;;;5039344;28;20018;-82
2021/10/26 06:10:10;;;;;;;23.67;12.20;;;;;;;;;;5020978;28;20117;-82
2021/10/26 06:12:42;;;;;;;19.25;12.65;;;;;;;;;;5039129;28;20036;-82
2021/10/26 06:15:08;;;;;;;21.30;12.45;;;;;;;;;;5038368;28;20025;-82
2021/10/26 06:17:34;;;;;;;26.02;13.85;;;;;;;;;;5039000;28;20426;-82
2021/10/26 06:20:00;;;;;;;26.35;14.68;;;;;;;;;;5038729;28;20404;-82
2021/10/26 06:22:26;;;;;;;22.13;13.57;;;;;;;;;;5039024;28;20029;-82
2021/10/26 06:24:52;;;;;;;21.00;11.85;;;;;;;;;;5038848;28;20152;-82
2021/10/26 06:27:18;;;;;;;18.30;11.13;;;;;;;;;;5038596;28;20422;-82
2021/10/26 06:29:45;;;;;;;17.75;11.40;;;;;;;;;;5039037;28;20052;-82
2021/10/26 06:32:11;;;;;;;16.40;10.55;;;;;;;;;;5038878;28;20036;-82
2021/10/26 06:34:37;;;;;;;19.15;10.18;;;;;;;;;;5038818;28;20105;-82
2021/10/26 06:37:03;;;;;;;20.40;10.23;;;;;;;;;;5038916;28;20323;-82
2021/10/26 06:39:29;;;;;;;16.88;11.02;;;;;;;;;;5038790;28;20029;-82
2021/10/26 06:41:55;;;;;;;22.17;11.25;;;;;;;;;;5020172;28;20069;-82
2021/10/26 06:44:21;;;;;;;16.75;10.50;;;;;;;;;;5038415;28;20025;-82
2021/10/26 06:46:48;;;;;;;21.55;12.13;;;;;;;;;;5021049;28;20324;-82
2021/10/26 06:49:14;;;;;;;26.75;14.30;;;;;;;;;;5020069;28;20025;-82
2021/10/26 06:51:40;;;;;;;19.45;12.88;;;;;;;;;;5038374;28;20029;-82
2021/10/26 06:54:06;;;;;;;21.60;12.38;;;;;;;;;;5038357;28;20392;-82
2021/10/26 06:56:32;;;;;;;23.05;12.38;;;;;;;;;;5038228;28;20030;-82
2021/10/26 06:58:58;;;;;;;19.42;11.85;;;;;;;;;;5038254;28;20432;-82
2021/10/26 07:01:24;;;;;;;19.38;12.10;;;;;;;;;;5038179;28;20021;-82
2021/10/26 07:03:50;;;;;;;19.98;12.18;;;;;;;;;;5038032;28;20549;-82
2021/10/26 07:06:16;;;;;;;17.08;10.35;;;;;;;;;;5020538;28;20022;-82
2021/10/26 07:08:42;;;;;;;27.50;12.13;;;;;;;;;;5038170;28;20025;-82
2021/10/26 07:11:08;;;;;;;26.23;12.05;;;;;;;;;;5037961;28;20396;-82
2021/10/26 07:13:38;;;;;;;27.13;12.85;;;;;;;;;;5038084;28;20316;-81
2021/10/26 07:16:05;;;;;;;18.80;11.88;;;;;;;;;;5038150;28;20031;-82
2021/10/26 07:18:31;;;;;;;19.85;10.73;;;;;;;;;;5037885;28;20021;-82
2021/10/26 07:20:57;;;;;;;18.42;11.07;;;;;;;;;;5038143;28;20036;-82
2021/10/26 07:23:24;;;;;;;15.68;10.88;;;;;;;;;;5037676;28;20087;-81
2021/10/26 07:25:50;;;;;;;19.52;10.88;;;;;;;;;;5037939;28;20159;-82
2021/10/26 07:28:16;;;;;;;19.30;11.00;;;;;;;;;;5037387;28;20124;-81
2021/10/26 07:30:45;;;;;;;15.25;9.65;;;;;;;;;;5019427;28;20033;-82
2021/10/26 07:33:19;;;;;;;17.08;10.93;;;;;;;;;;5037539;28;20025;-82
2021/10/26 07:35:47;;;;;;;16.50;9.73;;;;;;;;;;5020026;28;20315;-81
2021/10/26 07:38:24;;;;;;;19.05;10.57;;;;;;;;;;5037366;28;20053;-82
2021/10/26 07:40:50;;;;;;;18.40;10.52;;;;;;;;;;5037456;28;20026;-81
2021/10/26 07:43:17;;;;;;;19.17;11.02;;;;;;;;;;5019022;28;20111;-82
2021/10/26 07:45:43;;;;;;;17.80;9.68;;;;;;;;;;5019933;28;20068;-81
2021/10/26 07:48:09;;;;;;;14.90;9.45;;;;;;;;;;5037023;28;20021;-82
2021/10/26 07:50:35;;;;;;;14.98;9.48;;;;;;;;;;5037467;28;20022;-82
2021/10/26 07:53:01;;;;;;;15.82;9.93;;;;;;;;;;5019428;28;20034;-82
2021/10/26 07:55:27;;;;;;;15.50;9.25;;;;;;;;;;5037197;28;20479;-82
2021/10/26 07:57:54;;;;;;;13.88;9.30;;;;;;;;;;5019334;28;20045;-82
2021/10/26 08:00:21;;;;;;;15.35;9.00;;;;;;;;;;5037240;28;20041;-81
2021/10/26 08:02:48;;;;;;;13.15;9.25;;;;;;;;;;5037022;28;20033;-81
2021/10/26 08:05:14;;;;;;;15.68;9.45;;;;;;;;;;5019667;28;20125;-81
2021/10/26 08:07:40;;;;;;;15.90;9.70;;;;;;;;;;5037268;28;20017;-82
2021/10/26 08:10:06;;;;;;;17.42;8.77;;;;;;;;;;5037234;28;20067;-82
2021/10/26 08:12:33;;;;;;;19.35;9.02;;;;;;;;;;5019176;28;20336;-81
2021/10/26 08:14:59;;;;;;;15.45;8.20;;;;;;;;;;5037052;28;20034;-82
2021/10/26 08:17:25;;;;;;;19.00;10.00;;;;;;;;;;5036915;28;20087;-81
2021/10/26 08:19:51;;;;;;;18.25;9.48;;;;;;;;;;5036964;28;20033;-81
2021/10/26 08:22:18;;;;;;;15.32;8.60;;;;;;;;;;5037146;28;20356;-81
2021/10/26 08:24:46;;;;;;;16.92;9.35;;;;;;;;;;5037036;28;20097;-81
2021/10/26 08:27:15;;;;;;;17.90;10.35;;;;;;;;;;5036719;28;20029;-81
2021/10/26 08:35:13;;;;;;;19.08;9.10;;;;;;;;;;5037189;28;20034;-81
2021/10/26 08:37:38;;;;;;;14.50;8.25;;;;;;;;;;5036320;28;20056;-81
2021/10/26 08:40:05;;;;;;;12.32;7.75;;;;;;;;;;5039851;28;20030;-81
2021/10/26 08:42:31;;;;;;;17.15;8.93;;;;;;;;;;5040038;28;20050;-80
2021/10/26 08:44:57;;;;;;;16.42;9.15;;;;;;;;;;5040418;28;20021;-85
2021/10/26 08:47:23;;;;;;;15.80;8.57;;;;;;;;;;5041065;28;20068;-85
2021/10/26 08:49:51;;;;;;;12.80;9.27;;;;;;;;;;5040344;28;20466;-85
2021/10/26 08:52:19;;;;;;;19.73;10.35;;;;;;;;;;5041011;28;20040;-85
2021/10/26 08:54:46;;;;;;;17.17;9.23;;;;;;;;;;5022755;28;20033;-86
2021/10/26 08:57:12;;;;;;;14.98;8.90;;;;;;;;;;5039889;28;20029;-85
2021/10/26 08:59:38;;;;;;;20.00;10.27;;;;;;;;;;5039514;28;20069;-85
2021/10/26 09:02:05;;;;;;;20.98;10.95;;;;;;;;;;5040810;28;20021;-85
2021/10/26 09:04:32;;;;;;;16.67;9.07;;;;;;;;;;5040600;28;20044;-85
2021/10/26 09:07:08;;;;;;;14.25;7.30;;;;;;;;;;5039937;28;20029;-84
2021/10/26 09:09:37;;;;;;;16.02;9.45;;;;;;;;;;5040381;28;20022;-85
2021/10/26 09:17:53;;;;;;;14.80;8.10;;;;;;;;;;5040661;28;20059;-85
2021/10/26 09:20:23;;;;;;;15.35;9.63;;;;;;;;;;5039645;28;20063;-85
2021/10/26 09:22:51;;;;;;;14.95;8.40;;;;;;;;;;5040469;28;20029;-85
2021/10/26 09:25:17;;;;;;;18.20;9.02;;;;;;;;;;5040696;28;20021;-85
2021/10/26 09:27:46;;;;;;;17.30;7.97;;;;;;;;;;5040377;28;20324;-85
2021/10/26 09:30:13;;;;;;;17.17;9.10;;;;;;;;;;5040235;28;20029;-81
2021/10/26 09:32:45;;;;;;;13.77;8.38;;;;;;;;;;5039930;28;20083;-84
2021/10/26 09:35:16;;;;;;;19.00;7.53;;;;;;;;;;5040058;28;20057;-84
2021/10/26 09:37:45;;;;;;;13.32;8.20;;;;;;;;;;5040546;28;20034;-84
2021/10/26 09:40:11;;;;;;;15.80;7.95;;;;;;;;;;5039101;28;20025;-84
2021/10/26 09:42:51;;;;;;;15.77;9.25;;;;;;;;;;5038820;28;20144;-84
2021/10/26 09:45:26;;;;;;;12.20;7.82;;;;;;;;;;5040517;28;20104;-85
2021/10/26 09:47:59;;;;;;;11.38;7.65;;;;;;;;;;5038753;28;20083;-85
2021/10/26 09:50:32;;;;;;;13.18;7.53;;;;;;;;;;5038733;28;20029;-84
2021/10/26 09:53:06;;;;;;;9.13;6.72;;;;;;;;;;5039935;28;20026;-84
2021/10/26 09:55:52;;;;;;;12.50;6.72;;;;;;;;;;5038046;28;20041;-85
2021/10/26 09:58:25;;;;;;;10.35;6.28;;;;;;;;;;5022173;28;20029;-84
2021/10/26 10:01:03;;;;;;;13.13;6.97;;;;;;;;;;5039991;28;20312;-85
2021/10/26 10:03:29;;;;;;;12.63;7.45;;;;;;;;;;5039682;28;20396;-86
2021/10/26 10:05:56;;;;;;;15.82;8.02;;;;;;;;;;5039724;28;20026;-85
2021/10/26 10:11:26;;;;;;;16.63;10.02;;;;;;;;;;5039606;28;20068;-84
2021/10/26 10:13:56;;;;;;;12.45;8.93;;;;;;;;;;5039846;28;20075;-85
2021/10/26 10:16:23;;;;;;;12.93;7.97;;;;;;;;;;5039863;28;20025;-85
2021/10/26 10:18:50;;;;;;;17.33;8.68;;;;;;;;;;5038576;28;20030;-84
2021/10/26 10:21:18;;;;;;;16.15;8.95;;;;;;;;;;5039280;28;20022;-85
2021/10/26 10:26:50;;;;;;;16.15;8.70;;;;;;;;;;5039661;28;20116;-84
2021/10/26 10:29:17;;;;;;;15.15;7.60;;;;;;;;;;5039549;28;20033;-86
2021/10/26 10:31:44;;;;;;;18.40;8.63;;;;;;;;;;5039469;28;20037;-85
2021/10/26 10:34:10;;;;;;;12.38;8.15;;;;;;;;;;5039322;28;20018;-85
2021/10/26 10:36:40;;;;;;;12.25;7.97;;;;;;;;;;5039221;28;20401;-85
2021/10/26 10:42:14;;;;;;;17.13;8.15;;;;;;;;;;5038991;28;20065;-85
2021/10/26 10:44:41;;;;;;;14.18;7.63;;;;;;;;;;5038166;28;20055;-85
2021/10/26 10:47:12;;;;;;;17.13;9.60;;;;;;;;;;5039217;28;20076;-85
2021/10/26 10:49:38;;;;;;;13.05;8.10;;;;;;;;;;5037274;28;20059;-85
2021/10/26 10:52:08;;;;;;;12.55;8.82;;;;;;;;;;5037952;28;20311;-85
2021/10/26 10:57:38;;;;;;;12.05;7.47;;;;;;;;;;5038950;28;20028;-84
2021/10/26 11:00:17;;;;;;;16.73;9.18;;;;;;;;;;5038649;28;20040;-85
2021/10/26 11:02:48;;;;;;;14.68;8.27;;;;;;;;;;5037970;28;20022;-85
2021/10/26 11:05:36;;;;;;;14.30;8.13;;;;;;;;;;5037004;28;20112;-86
2021/10/26 11:08:04;;;;;;;14.25;7.85;;;;;;;;;;5038544;28;20257;-85
2021/10/26 11:10:49;;;;;;;18.20;8.55;;;;;;;;;;5037636;28;20018;-85
2021/10/26 11:13:19;;;;;;;12.30;8.80;;;;;;;;;;5037610;28;20032;-85
2021/10/26 11:15:46;;;;;;;16.13;7.90;;;;;;;;;;5038528;28;20026;-85
2021/10/26 11:18:32;;;;;;;16.25;9.02;;;;;;;;;;5038591;28;20408;-86
2021/10/26 11:20:58;;;;;;;14.02;8.07;;;;;;;;;;5037325;28;20028;-85
2021/10/26 11:23:33;;;;;;;13.45;7.90;;;;;;;;;;5038580;28;20053;-85
2021/10/26 11:26:07;;;;;;;10.90;7.18;;;;;;;;;;5038247;28;20056;-85
2021/10/26 11:28:34;;;;;;;17.10;9.95;;;;;;;;;;5036863;28;20423;-86
2021/10/26 11:31:01;;;;;;;12.85;8.25;;;;;;;;;;5038106;28;20025;-85
2021/10/26 11:33:29;;;;;;;12.30;7.90;;;;;;;;;;5038043;28;20493;-86
2021/10/26 11:36:02;;;;;;;13.85;7.72;;;;;;;;;;5038260;28;20053;-85
2021/10/26 11:41:59;;;;;;;15.23;9.05;;;;;;;;;;5037523;28;20068;-84
2021/10/26 11:44:26;;;;;;;13.23;7.90;;;;;;;;;;5018071;28;20050;-85
2021/10/26 11:46:52;;;;;;;15.43;8.43;;;;;;;;;;5018334;28;20029;-85
2021/10/26 11:49:23;;;;;;;12.95;7.97;;;;;;;;;;5016756;28;20041;-84
2021/10/26 11:51:50;;;;;;;14.73;8.45;;;;;;;;;;5017107;28;20064;-84
2021/10/26 11:54:38;;;;;;;14.10;8.32;;;;;;;;;;5017909;28;20025;-84
2021/10/26 11:57:05;;;;;;;14.75;8.55;;;;;;;;;;5017848;28;20416;-84
2021/10/26 11:59:36;;;;;;;18.35;7.43;;;;;;;;;;5000692;28;20125;-85
2021/10/26 12:02:05;;;;;;;20.55;8.60;;;;;;;;;;5017888;28;20032;-84
2021/10/26 12:04:35;;;;;;;17.35;10.07;;;;;;;;;;5018415;28;20018;-84
2021/10/26 12:07:15;;;;;;;11.48;8.32;;;;;;;;;;5018207;28;20018;-85
2021/10/26 12:13:22;;;;;;;13.57;9.32;;;;;;;;;;5017652;28;20090;-85
2021/10/26 12:15:48;;;;;;;16.42;9.43;;;;;;;;;;5017069;28;20026;-84
2021/10/26 12:18:14;;;;;;;17.55;9.27;;;;;;;;;;5016705;28;20038;-84
2021/10/26 12:20:40;;;;;;;14.80;8.82;;;;;;;;;;5017957;28;20022;-85
2021/10/26 12:23:07;;;;;;;18.02;8.60;;;;;;;;;;5017649;28;20032;-84
2021/10/26 12:25:37;;;;;;;15.18;9.27;;;;;;;;;;5017492;28;20455;-84
2021/10/26 12:28:05;;;;;;;17.38;11.02;;;;;;;;;;5017705;28;20065;-84
2021/10/26 12:30:32;;;;;;;17.00;9.45;;;;;;;;;;5018034;28;20101;-85
2021/10/26 12:33:02;;;;;;;23.00;10.00;;;;;;;;;;5017657;28;20025;-84
2021/10/26 12:35:33;;;;;;;26.73;14.65;;;;;;;;;;5000848;28;20034;-84
2021/10/26 12:38:17;;;;;;;32.38;16.25;;;;;;;;;;5016313;28;20129;-84
2021/10/26 12:40:45;;;;;;;16.83;9.65;;;;;;;;;;5018054;28;20308;-84
2021/10/26 12:43:12;;;;;;;17.38;9.18;;;;;;;;;;5019689;28;20045;-85
2021/10/26 12:45:40;;;;;;;13.25;9.23;;;;;;;;;;5037692;28;20025;-84
2021/10/26 12:48:08;;;;;;;15.52;9.50;;;;;;;;;;5037349;28;20076;-84
2021/10/26 12:50:47;;;;;;;13.10;8.32;;;;;;;;;;5037375;28;20033;-84
2021/10/26 12:59:25;;;;;;;12.73;8.65;;;;;;;;;;5038729;28;20079;-85
2021/10/26 13:01:58;;;;;;;17.75;10.45;;;;;;;;;;5038016;28;20034;-84
2021/10/26 13:04:25;;;;;;;15.55;10.57;;;;;;;;;;5019652;28;20017;-84
2021/10/26 13:07:00;;;;;;;16.05;11.25;;;;;;;;;;5037171;28;20021;-84
2021/10/26 13:09:31;;;;;;;21.70;10.82;;;;;;;;;;5036908;28;20072;-84
2021/10/26 13:12:16;;;;;;;20.13;13.15;;;;;;;;;;5037177;28;20044;-84
2021/10/26 13:14:46;;;;;;;16.17;10.93;;;;;;;;;;5036912;28;20029;-84
2021/10/26 13:17:30;;;;;;;19.92;11.85;;;;;;;;;;5019129;28;20037;-84
2021/10/26 13:20:12;;;;;;;15.73;10.88;;;;;;;;;;5019523;28;20057;-84
2021/10/26 13:22:39;;;;;;;19.83;13.23;;;;;;;;;;5019424;28;20025;-84
2021/10/26 13:25:05;;;;;;;18.13;11.02;;;;;;;;;;5038408;28;20403;-83
2021/10/26 13:27:31;;;;;;;14.98;10.73;;;;;;;;;;5022682;28;20033;-84
2021/10/26 13:29:57;;;;;;;21.98;11.00;;;;;;;;;;5022574;28;20060;-84
2021/10/26 13:32:24;;;;;;;14.30;9.73;;;;;;;;;;5040536;28;20033;-84
2021/10/26 13:34:51;;;;;;;20.77;11.63;;;;;;;;;;5038698;28;20080;-84
2021/10/26 13:37:19;;;;;;;25.17;14.13;;;;;;;;;;5040434;28;20074;-84
2021/10/26 13:39:46;;;;;;;23.98;12.55;;;;;;;;;;5021936;28;20037;-84
2021/10/26 13:42:12;;;;;;;17.25;11.35;;;;;;;;;;5040099;28;20117;-84
2021/10/26 13:44:41;;;;;;;19.27;12.32;;;;;;;;;;5022724;28;20433;-84
2021/10/26 13:47:08;;;;;;;17.17;12.70;;;;;;;;;;5040296;28;20033;-84
2021/10/26 13:49:34;;;;;;;16.50;11.95;;;;;;;;;;5022308;28;20026;-83
2021/10/26 13:52:01;;;;;;;18.23;12.75;;;;;;;;;;5022518;28;20100;-84
2021/10/26 13:54:27;;;;;;;21.50;13.77;;;;;;;;;;5039867;28;20095;-84
2021/10/26 13:56:54;;;;;;;22.52;14.88;;;;;;;;;;5039840;28;20079;-85
2021/10/26 13:59:20;;;;;;;25.25;14.55;;;;;;;;;;5039625;28;20063;-84
2021/10/26 14:01:47;;;;;;;24.02;15.15;;;;;;;;;;5039726;28;20025;-85
2021/10/26 14:04:14;;;;;;;17.90;11.80;;;;;;;;;;5040025;28;20136;-84
2021/10/26 14:06:40;;;;;;;18.75;11.38;;;;;;;;;;5039826;28;20022;-85
2021/10/26 14:09:08;;;;;;;17.95;10.63;;;;;;;;;;5039592;28;20021;-85
2021/10/26 14:11:35;;;;;;;22.05;10.90;;;;;;;;;;5039588;28;20097;-85
2021/10/26 14:14:02;;;;;;;19.00;12.57;;;;;;;;;;5039340;28;20106;-84
2021/10/26 14:16:28;;;;;;;20.90;12.07;;;;;;;;;;5039705;28;20022;-84
2021/10/26 14:18:54;;;;;;;24.25;14.65;;;;;;;;;;5039453;28;20416;-85
2021/10/26 14:21:21;;;;;;;25.02;16.58;;;;;;;;;;5039476;28;20029;-84
2021/10/26 14:27:08;;;;;;;26.92;15.75;;;;;;;;;;5039369;28;20079;-84
2021/10/26 14:29:34;;;;;;;27.63;16.33;;;;;;;;;;5039059;28;20031;-85
2021/10/26 14:32:02;;;;;;;29.83;18.10;;;;;;;;;;5021675;28;20064;-85
2021/10/26 14:34:28;;;;;;;36.00;18.80;;;;;;;;;;5039197;28;20021;-84
2021/10/26 14:37:33;;;;;;;42.22;21.42;;;;;;;;;;5038519;28;20045;-84
2021/10/26 14:42:47;;;;;;;28.08;18.42;;;;;;;;;;5038810;28;20041;-84
2021/10/26 14:55:58;;;;;;;33.28;17.90;;;;;;;;;;5038811;28;20450;-85
2021/10/26 14:58:25;;;;;;;65.53;24.23;;;;;;;;;;5021238;28;20124;-85
2021/10/26 15:00:52;;;;;;;41.60;24.10;;;;;;;;;;5038402;28;20025;-85
2021/10/26 15:03:18;;;;;;;43.03;24.20;;;;;;;;;;5038532;28;20029;-84
2021/10/26 15:05:44;;;;;;;44.08;22.83;;;;;;;;;;5020640;28;20032;-85
2021/10/26 15:08:12;;;;;;;43.83;22.98;;;;;;;;;;5038775;28;20431;-84
2021/10/26 15:11:21;;;;;;;40.22;22.70;;;;;;;;;;5021052;28;20022;-85
2021/10/26 15:13:50;;;;;;;49.97;24.75;;;;;;;;;;5037732;28;20030;-84
2021/10/26 15:16:16;;;;;;;;;;;;;;;;;;5038669;28;20034;-84
2021/10/26 15:18:43;;;;;;;54.53;24.10;;;;;;;;;;5020443;28;19909;-84
2021/10/26 15:21:14;;;;;;;47.67;23.00;;;;;;;;;;5020733;28;20025;-85
2021/10/26 15:35:17;;;;;;;60.15;33.22;;;;;;;;;;5038328;28;20087;-85
2021/10/26 15:37:43;;;;;;;70.65;38.33;;;;;;;;;;5020722;28;20029;-85
2021/10/26 15:40:09;;;;;;;67.00;36.22;;;;;;;;;;5038188;28;20032;-84
2021/10/26 15:42:36;;;;;;;71.15;34.40;;;;;;;;;;5020498;28;20072;-85
2021/10/26 15:45:02;;;;;;;96.82;31.63;;;;;;;;;;5038829;28;20022;-86
2021/10/26 15:47:28;;;;;;;69.82;30.98;;;;;;;;;;5037331;28;20104;-85
2021/10/26 15:49:54;;;;;;;57.25;30.92;;;;;;;;;;5020026;28;20014;-85
2021/10/26 15:52:20;;;;;;;68.35;30.58;;;;;;;;;;5020993;28;20053;-85